Hovedside
METAR-TAF:

METAR-TAF

Lufthavner :

Aden Adde internasjonale lufthavn

Mogadishu, Somalia

breddegrad: 02-02N, lengdegrad: 045-21E, høyde over havet: 9 m

Gjeldene værobservasjon

Denne rapporten ble laget for 46 minutter siden, klokken 10:00 UTC
Vind 18 kt fra Øst-nordøst
Temperatur 30°C
Luftfuktighet 59%
Trykk 1009 hPa
Sikt 10 km eller mer
Spredte skyer i en høyde av 2400 ft

METAR: HCMM 191000Z 07018KT 9999 SCT024 30/21 Q1009

Tid: 13:46 (10:46 UTC)


TAF: fraværende

Værobservasjoner og værvarsel for over 4000 flyplasser (METAR- og TAF-rapporter).

Tilgjengelige stasjoner er representert av de røde og gule prikkene på kartet.

Hold musepekeren over prikken for å se navnet på stasjonen.

Klikk så for å se værobservasjoner og -varsler.

For å forandre kartet kan du klikke på den grønne knappen med svart kryss for å zoome inn, på den grønne knappen med strek for å zoome ut, eller på de grønne pilene for å se tilstøtende kart.


METAR-TAF: